Portada
METAR-TAF:

METAR-TAF

Aeroports :

Aeroport Suvarnabhumi

Bangkok-Suvarnabhumi, Tailàndia

latitud: 13-40-52N, longitud: 100-44-50E, altitud: 2 m

Observació

L'informe es va fer fa 38 minuts, a les 03:00 UTC
Vent 11 kt del Est/Nord-Est
Temperatura 28°C
Humitat 58%
Pressió 1014 hPa
Visibilitat 10 km o més
sense núvols per sota de 1500 mi sense presència de cumulonimbus.

METAR: VTBS 210300Z 07011KT CAVOK 28/19 Q1014 NOSIG

Hora: 10:38 (03:38 UTC)

Pronòstic

L'informe es va fer fa 4 hores i 38 minuts, a les 23:00 UTC
Pronòstic vàlid del 21 a les 00 UTC al 22 a les 06 UTC
Vent 8 kt del Est/Nord-Est
Visibilitat 10 km o més
Escasses núvols a una alçada de 2500 ft

TAF: VTBS 202300Z 2100/2206 06008KT 9999 FEW025

Observacions i pronòstics meteorològics de més de 4000 aeroports (METAR i TAF).

Les estacions disponibles són els punts grocs i vermells al mapa.

Posi el ratolí al punt desitjat per veure el nom de l'estació.

Feu clic per veure les observacions i els pronòstics meteorològics.

Per canviar el mapa: feu clic els botons verds amb una creu de color negre per apropar; al botó verd amb un guió per allunyar la imatge; o en les fletxes verdes per a mapes adjacents.


METAR-TAF: